Terminal Aerodrome Forecast
Issued by NWS Tulsa, OK

Home | Current Version | Previous Version | Text Only | Print | Product List | Glossary On
Versions: 1 2 3 4 5 6 7 8 9 10 11 12 13 14 15
000
FTUS44 KTSA 100526
TAFFSM
TAF
KFSM 100526Z 1006/1106 08006KT P6SM OVC060
     FM101500 13009KT P6SM BKN060
     FM110000 08008KT P6SM BKN250=

USA.gov is the U.S. government's official web portal to all federal, state and local government web resources and services.